Cannon Falls, Minnesota
Current Conditions -  °F | °C
As of 2:14 AM on Saturday 25 Oct 2014 (Local Time) from KSYN Reporting Station
Clear Clear  
Wind Chill: 55°   Ceiling: Unl
Heat Index: 55°   Visibility: 10mi
Dew Point: 44°   Wind: 7mph
Humidity: 66%   Direction: 270°W
Pressure: 29.93"   Gusts: NA
Location:  44.51°N, 92.91°W
Report Text: KSYN 250714Z AUTO 27006KT 10SM CLR 13/07 A2993 RMK AO2 T01300068
Loading
Personal Weather Stations






























Interactive Weather Map
Tropical Storm Tracking
New forecast layout! Learn more

10-Day Weather Forecast

Advertisements
Track Severe Weather on mobile